Flight Track Log - Related Links

Times and Time Zones

All times are in EDT time to prevent confusion due to time zone crossing. See the DAL268 flight status page for this flight to view local times or setup timezone preferences in your user account.

Time Position Orientation Groundspeed Altitude Reporting Facility
EDT Latitude Longitude Course Direction KTS MPH feet Rate Location/Type
Tue 02:35:53 PM 37.6170 -122.3740 90° East 145 167  Level FlightAware ADS-B
Tue 02:36:08 PM 37.6270 -122.3670 29° Northeast 162 186 300 1,875 Climbing FlightAware ADS-B
Tue 02:36:25 PM 37.6370 -122.3590 32° Northeast 167 192 1,000 2,077 Climbing FlightAware ADS-B
Tue 02:36:34 PM 37.6420 -122.3510 52° Northeast 179 206 1,200 1,429 Climbing FlightAware ADS-B
Tue 02:36:46 PM 37.6490 -122.3420 46° Northeast 199 229 1,500 1,818 Climbing FlightAware ADS-B
Tue 02:37:07 PM 37.6640 -122.3220 47° Northeast 220 253 2,200 2,182 Climbing FlightAware ADS-B
Tue 02:37:30 PM 37.6810 -122.2980 48° Northeast 243 280 3,100 2,400 Climbing FlightAware ADS-B
Tue 02:37:52 PM 37.6980 -122.2740 48° Northeast 260 299 4,000 2,429 Climbing FlightAware ADS-B
Tue 02:38:12 PM 37.7170 -122.2540 40° Northeast 270 311 4,800 2,600 Climbing FlightAware ADS-B
Tue 02:38:22 PM 37.7260 -122.2450 38° Northeast 272 313 5,300 3,000 Climbing FlightAware ADS-B
Tue 02:38:40 PM 37.7440 -122.2280 37° Northeast 274 315 6,200 2,842 Climbing FlightAware ADS-B
Tue 02:39:00 PM 37.7660 -122.2070 37° Northeast 285 328 7,100 2,400 Climbing FlightAware ADS-B
Tue 02:39:20 PM 37.7840 -122.1890 38° Northeast 289 333 7,800 2,550 Climbing FlightAware ADS-B
Tue 02:39:40 PM 37.8060 -122.1680 37° Northeast 292 336 8,800 2,850 Climbing FlightAware ADS-B
Tue 02:40:00 PM 37.8300 -122.1460 36° Northeast 301 346 9,700 2,073 Climbing FlightAware ADS-B
Tue 02:40:35 PM 37.8690 -122.1080 38° Northeast 322 371 10,700 1,457 Climbing FlightAware ADS-B
Tue 02:41:10 PM 37.9110 -122.0680 37° Northeast 356 410 11,400 1,371 Climbing FlightAware ADS-B
Tue 02:41:45 PM 37.9640 -122.0170 37° Northeast 387 445 12,300 1,865 Climbing FlightAware ADS-B
Tue 02:42:24 PM 38.0220 -121.9610 37° Northeast 402 463 13,700 2,160 Climbing FlightAware ADS-B
Tue 02:43:00 PM 38.0760 -121.9090 37° Northeast 409 471 15,000 2,118 Climbing FlightAware ADS-B
Tue 02:43:32 PM 38.1240 -121.8630 37° Northeast 418 481 16,100 1,853 Climbing FlightAware ADS-B
Tue 02:44:08 PM 38.1800 -121.8080 38° Northeast 430 495 17,100 1,714 Climbing FlightAware ADS-B
Tue 02:44:42 PM 38.2350 -121.7560 37° Northeast 439 505 18,100 1,676 Climbing FlightAware ADS-B
Tue 02:45:16 PM 38.2900 -121.7020 38° Northeast 446 513 19,000 1,500 Climbing FlightAware ADS-B
Tue 02:45:54 PM 38.3540 -121.6390 38° Northeast 457 526 19,900 1,457 Climbing FlightAware ADS-B
Tue 02:46:26 PM 38.4080 -121.5870 37° Northeast 465 535 20,700 1,543 Climbing FlightAware ADS-B
Tue 02:47:04 PM 38.4670 -121.5110 45° Northeast 480 552 21,700 1,562 Climbing FlightAware ADS-B
Tue 02:47:39 PM 38.5140 -121.4340 52° Northeast 486 559 22,600 1,478 Climbing FlightAware ADS-B
Tue 02:48:13 PM 38.5610 -121.3520 54° Northeast 493 567 23,400 1,412 Climbing FlightAware ADS-B
Tue 02:48:47 PM 38.6060 -121.2740 54° Northeast 498 573 24,200 1,412 Climbing FlightAware ADS-B
Tue 02:49:21 PM 38.6520 -121.1930 54° Northeast 502 578 25,000 1,371 Climbing FlightAware ADS-B
Tue 02:49:57 PM 38.7030 -121.1050 53° Northeast 507 583 25,800 1,286 Climbing FlightAware ADS-B
Tue 02:50:31 PM 38.7510 -121.0230 53° Northeast 512 589 26,500 1,167 Climbing FlightAware ADS-B
Tue 02:51:09 PM 38.8040 -120.9300 54° Northeast 519 597 27,200 1,054 Climbing FlightAware ADS-B
Tue 02:51:45 PM 38.8560 -120.8400 53° Northeast 523 602 27,800 1,059 Climbing FlightAware ADS-B
Tue 02:52:17 PM 38.9020 -120.7600 54° Northeast 528 608 28,400 1,254 Climbing FlightAware ADS-B
Tue 02:52:52 PM 38.9530 -120.6730 53° Northeast 526 605 29,200 1,433 Climbing FlightAware ADS-B
Tue 02:53:24 PM 38.9995 -120.5925 53° Northeast 524 603 30,000 1,459 Climbing FlightAware ADS-B
Tue 02:54:06 PM 39.0593 -120.4887 53° Northeast 523 602 31,000 1,333 Climbing FlightAware ADS-B
Tue 02:54:36 PM 39.1034 -120.4118 54° Northeast 521 600 31,600 1,333 Climbing FlightAware ADS-B
Tue 02:55:18 PM 39.1615 -120.3101 54° Northeast 517 595 32,600 1,500 Climbing FlightAware ADS-B
Tue 02:55:48 PM 39.2052 -120.2335 54° Northeast 514 592 33,400 1,400 Climbing FlightAware ADS-B
Tue 02:56:18 PM 39.2474 -120.1593 54° Northeast 514 592 34,000 1,000 Climbing FlightAware ADS-B
Tue 02:56:48 PM 39.2875 -120.0885 54° Northeast 516 594 34,400 800 Climbing FlightAware ADS-B
Tue 02:57:18 PM 39.3315 -120.0109 54° Northeast 517 595 34,800 486 Climbing FlightAware ADS-B
Tue 02:58:02 PM 39.3929 -119.9023 54° Northeast 510 587 35,000 143 Climbing FlightAware ADS-B
Tue 02:58:42 PM 39.4476 -119.8050 54° Northeast 501 577 35,000  Level FlightAware ADS-B
Tue 02:59:22 PM 39.5029 -119.7065 54° Northeast 512 589 35,000  Level FlightAware ADS-B
Tue 02:59:52 PM 39.5450 -119.6313 54° Northeast 516 594 35,000  Level FlightAware ADS-B
Tue 03:00:38 PM 39.6084 -119.5179 54° Northeast 518 596 35,000  Level FlightAware ADS-B
Tue 03:01:08 PM 39.6512 -119.4412 54° Northeast 520 598 35,000  Level FlightAware ADS-B
Tue 03:01:38 PM 39.6920 -119.3679 54° Northeast 525 604 35,000  Level FlightAware ADS-B
Tue 03:02:16 PM 39.7475 -119.2676 54° Northeast 527 606 35,000  Level FlightAware ADS-B
Tue 03:02:46 PM 39.7887 -119.1930 54° Northeast 528 608 35,000  Level FlightAware ADS-B
Tue 03:03:26 PM 39.8460 -119.0890 54° Northeast 528 608 35,000  Level FlightAware ADS-B
Tue 03:03:56 PM 39.8895 -119.0098 54° Northeast 528 608 35,000  Level FlightAware ADS-B
Tue 03:04:38 PM 39.9466 -118.9057 54° Northeast 525 604 35,000  Level FlightAware ADS-B
Tue 03:05:08 PM 39.9899 -118.8264 54° Northeast 524 603 35,000  Level FlightAware ADS-B
Tue 03:05:38 PM 40.0326 -118.7481 55° Northeast 523 602 35,000  Level FlightAware ADS-B
Tue 03:06:27 PM 40.1000 -118.6230 55° Northeast 523 602 35,000  Level FlightAware ADS-B
Tue 03:06:41 PM 40.1153 -118.5891 59° Northeast 523 602 35,000  Level FlightAware ADS-B
Tue 03:07:38 PM 40.1686 -118.4236 67° East 520 598 35,000  Level FlightAware ADS-B
Tue 03:08:11 PM 40.1960 -118.3220 71° East 520 598 35,000  Level FlightAware ADS-B
Tue 03:08:18 PM 40.2019 -118.3018 69° East 521 600 35,000  Level FlightAware ADS-B
Tue 03:08:54 PM 40.2305 -118.1955 71° East 519 597 35,000  Level FlightAware ADS-B
Tue 03:09:24 PM 40.2540 -118.1083 71° East 519 597 35,000  Level FlightAware ADS-B
Tue 03:10:06 PM 40.2855 -117.9914 70° East 518 596 35,000  Level FlightAware ADS-B
Tue 03:10:36 PM 40.3122 -117.8927 70° East 519 597 35,000  Level FlightAware ADS-B
Tue 03:11:29 PM 40.3300 -117.8390 67° East 519 597 35,000  Level FlightAware ADS-B
Tue 03:12:11 PM 40.3880 -117.6105 71° East 518 596 35,000  Level FlightAware ADS-B
Tue 03:12:44 PM 40.4136 -117.5143 71° East 519 597 35,000  Level FlightAware ADS-B
Tue 03:13:17 PM 40.4050 -117.5670 258° West 519 597 35,000  Level FlightAware ADS-B
Tue 03:13:54 PM 40.4310 -117.4740 70° East 519 597 35,000  Level FlightAware ADS-B
Tue 03:14:30 PM 40.4560 -117.3830 70° East 519 597 35,000  Level FlightAware ADS-B
Tue 03:15:06 PM 40.4810 -117.2920 70° East 519 597 35,000  Level FlightAware ADS-B
Tue 03:15:43 PM 40.5070 -117.1990 70° East 519 597 35,000  Level FlightAware ADS-B
Tue 03:16:19 PM 40.5320 -117.1080 70° East 519 597 35,000  Level FlightAware ADS-B
Tue 03:16:55 PM 40.5570 -117.0170 70° East 519 597 35,000  Level FlightAware ADS-B
Tue 03:17:31 PM 40.5820 -116.9260 70° East 519 597 35,000  Level FlightAware ADS-B
Tue 03:17:55 PM 40.5990 -116.8660 70° East 519 597 35,000  Level FlightAware ADS-B
Tue 03:18:32 PM 40.6250 -116.7720 70° East 519 597 35,000  Level FlightAware ADS-B
Tue 03:20:38 PM 40.8696 -116.1490 62° Northeast 519 597 35,000  Level FlightAware ADS-B
Tue 03:21:29 PM 40.9245 -116.0050 63° Northeast 520 598 35,000  Level FlightAware ADS-B
Tue 03:22:17 PM 40.9761 -115.8700 63° Northeast 521 600 35,000  Level FlightAware ADS-B
Tue 03:22:50 PM 41.0114 -115.7770 63° Northeast 522 601 35,000  Level FlightAware ADS-B
Tue 03:23:23 PM 41.0474 -115.6810 64° Northeast 522 601 35,000  Level FlightAware ADS-B
Tue 03:25:57 PM 41.2123 -115.2410 63° Northeast 522 601 35,000  Level FlightAware ADS-B
Tue 03:26:27 PM 41.2448 -115.1530 64° Northeast 524 603 35,000  Level FlightAware ADS-B
Tue 03:27:04 PM 41.2837 -115.0480 64° Northeast 524 603 35,000  Level FlightAware ADS-B
Tue 03:27:34 PM 41.3156 -114.9620 64° Northeast 524 603 35,000  Level FlightAware ADS-B
Tue 03:28:05 PM 41.3492 -114.8710 64° Northeast 526 605 35,000  Level FlightAware ADS-B
Tue 03:28:35 PM 41.3814 -114.7820 64° Northeast 527 606 35,000  Level FlightAware ADS-B
Tue 03:29:07 PM 41.4143 -114.6920 64° Northeast 526 605 35,000  Level FlightAware ADS-B
Tue 03:29:37 PM 41.4467 -114.6030 64° Northeast 526 605 35,000  Level FlightAware ADS-B
Tue 03:30:08 PM 41.4796 -114.5130 64° Northeast 526 605 35,000  Level FlightAware ADS-B
Tue 03:30:40 PM 41.5129 -114.4210 64° Northeast 526 605 35,000  Level FlightAware ADS-B
Tue 03:31:10 PM 41.5445 -114.3330 64° Northeast 527 606 35,000  Level FlightAware ADS-B
Tue 03:31:40 PM 41.5764 -114.2440 64° Northeast 526 605 35,000  Level FlightAware ADS-B
Tue 03:32:10 PM 41.6080 -114.1560 64° Northeast 526 605 35,000  Level FlightAware ADS-B
Tue 03:32:35 PM 41.6322 -114.0883 64° Northeast 526 605 35,000  Level FlightAware ADS-B
Tue 03:32:46 PM 41.6456 -114.0510 64° Northeast 526 605 35,000  Level FlightAware ADS-B
Tue 03:33:14 PM 41.6732 -113.9733 65° Northeast 528 608 35,000  Level FlightAware ADS-B
Tue 03:33:17 PM 41.6775 -113.9610 65° Northeast 528 608 35,000  Level FlightAware ADS-B
Tue 03:33:44 PM 41.7058 -113.8815 64° Northeast 528 608 35,000  Level FlightAware ADS-B
Tue 03:33:48 PM 41.7100 -113.8700 64° Northeast 528 608 35,000  Level FlightAware ADS-B
Tue 03:34:14 PM 41.7367 -113.7942 65° Northeast 527 606 35,000  Level FlightAware ADS-B
Tue 03:34:31 PM 41.7552 -113.7420 65° Northeast 526 605 35,000  Level FlightAware ADS-B
Tue 03:35:07 PM 41.7918 -113.6378 65° Northeast 527 606 35,000  Level FlightAware ADS-B
Tue 03:35:25 PM 41.8109 -113.5830 65° Northeast 527 606 35,000  Level FlightAware ADS-B
Tue 03:35:39 PM 41.8240 -113.5459 65° Northeast 527 606 35,000  Level FlightAware ADS-B
Tue 03:35:56 PM 41.8430 -113.4920 65° Northeast 527 606 35,000  Level FlightAware ADS-B
Tue 03:36:10 PM 41.8563 -113.4534 65° Northeast 529 609 35,000  Level FlightAware ADS-B
Tue 03:36:41 PM 41.8884 -113.3615 65° Northeast 526 605 35,000  Level FlightAware ADS-B
Tue 03:36:52 PM 41.9004 -113.3270 65° Northeast 527 606 35,000  Level FlightAware ADS-B
Tue 03:37:21 PM 41.9298 -113.2422 65° Northeast 526 605 35,000  Level FlightAware ADS-B
Tue 03:37:53 PM 41.9628 -113.1467 65° Northeast 527 606 35,000  Level FlightAware ADS-B
Tue 03:38:23 PM 41.9930 -113.0588 65° Northeast 528 608 35,000  Level FlightAware ADS-B
Tue 03:38:53 PM 42.0243 -112.9679 65° Northeast 527 606 35,000  Level FlightAware ADS-B
Tue 03:39:27 PM 42.0580 -112.8694 65° Northeast 527 606 35,000  Level FlightAware ADS-B
Tue 03:39:58 PM 42.0830 -112.7960 65° Northeast 527 606 35,000  Level FlightAware ADS-B
Tue 03:40:16 PM 42.1077 -112.7237 65° Northeast 529 609 35,000  Level FlightAware ADS-B
Tue 03:41:18 PM 42.1708 -112.5374 65° Northeast 529 609 35,000  Level FlightAware ADS-B
Tue 03:42:21 PM 42.2340 -112.3470 66° East 528 608 35,000  Level FlightAware ADS-B
Tue 03:42:56 PM 42.2680 -112.2450 66° East 529 609 35,000  Level FlightAware ADS-B
Tue 03:43:32 PM 42.3030 -112.1360 67° East 531 611 35,000  Level FlightAware ADS-B
Tue 03:44:08 PM 42.3350 -112.0380 66° East 531 611 35,000  Level FlightAware ADS-B
Tue 03:44:24 PM 42.3548 -111.9750 67° East 530 610 35,000  Level FlightAware ADS-B
Tue 03:44:57 PM 42.3868 -111.8760 66° East 530 610 35,000  Level FlightAware ADS-B
Tue 03:45:27 PM 42.4163 -111.7840 66° East 530 610 35,000  Level FlightAware ADS-B
Tue 03:45:59 PM 42.4290 -111.7510 62° Northeast 531 611 35,000  Level FlightAware ADS-B
Tue 03:46:24 PM 42.4717 -111.6120 67° East 531 611 35,000  Level FlightAware ADS-B
Tue 03:47:06 PM 42.5128 -111.4830 67° East 530 610 35,000  Level FlightAware ADS-B
Tue 03:47:46 PM 42.5500 -111.3640 67° East 531 611 35,000  Level FlightAware ADS-B
Tue 03:48:23 PM 42.5820 -111.2680 66° East 531 611 35,000  Level FlightAware ADS-B
Tue 03:49:00 PM 42.6130 -111.1720 66° East 531 611 35,000  Level FlightAware ADS-B
Tue 03:49:37 PM 42.6450 -111.0760 66° East 531 611 35,000  Level FlightAware ADS-B
Tue 03:50:13 PM 42.6750 -110.9830 66° East 531 611 35,000  Level FlightAware ADS-B
Tue 03:50:50 PM 42.7060 -110.8870 66° East 531 611 35,000  Level FlightAware ADS-B
Tue 03:51:26 PM 42.7370 -110.7940 66° East 531 611 35,000  Level FlightAware ADS-B
Tue 03:52:02 PM 42.7680 -110.7000 66° East 531 611 35,000  Level FlightAware ADS-B
Tue 03:52:38 PM 42.7980 -110.6060 66° East 531 611 35,000  Level FlightAware ADS-B
Tue 03:53:14 PM 42.8290 -110.5130 66° East 531 611 35,000  Level FlightAware ADS-B
Tue 03:53:50 PM 42.8590 -110.4190 66° East 531 611 35,000  Level FlightAware ADS-B
Tue 03:54:26 PM 42.8900 -110.3250 66° East 531 611 35,000  Level FlightAware ADS-B
Tue 03:55:01 PM 42.9200 -110.2340 66° East 531 611 35,000  Level FlightAware ADS-B
Tue 03:55:47 PM 42.9590 -110.1140 66° East 531 611 35,000  Level FlightAware ADS-B
Tue 03:56:25 PM 42.9910 -110.0150 66° East 531 611 35,000  Level FlightAware ADS-B
Tue 03:57:01 PM 43.0210 -109.9210 66° East 531 611 35,000  Level FlightAware ADS-B
Tue 03:57:37 PM 43.0520 -109.8270 66° East 531 611 35,000  Level FlightAware ADS-B
Tue 03:58:35 PM 43.1594 -109.3633 66° East 534 615 35,000  Level Salt Lake Center
Tue 03:59:37 PM 43.2142 -109.1744 68° East 535 616 35,000  Level Salt Lake Center
Tue 04:00:39 PM 43.2683 -108.9856 68° East 534 615 35,000  Level Salt Lake Center
Tue 04:01:40 PM 43.3231 -108.7961 68° East 536 617 35,000  Level Salt Lake Center
Tue 04:03:13 PM 43.4078 -108.4936 69° East 529 609 35,000  Level Denver Center
Tue 04:03:43 PM 43.4292 -108.4200 68° East 533 613 35,000  Level Salt Lake Center
Tue 04:04:45 PM 43.4767 -108.1861 74° East 532 612 35,000  Level Salt Lake Center
Tue 04:05:47 PM 43.5011 -107.9869 80° East 530 610 35,000  Level Salt Lake Center
Tue 04:06:48 PM 43.5239 -107.7858 81° East 534 615 35,000  Level Salt Lake Center
Tue 04:07:50 PM 43.5464 -107.5847 81° East 535 616 35,000  Level Salt Lake Center
Tue 04:08:51 PM 43.5700 -107.3833 81° East 536 617 35,000  Level Salt Lake Center
Tue 04:09:53 PM 43.5931 -107.1783 81° East 541 623 35,000  Level Salt Lake Center
Tue 04:10:55 PM 43.6147 -106.9767 81° East 537 618 35,000  Level Salt Lake Center
Tue 04:11:27 PM 43.6314 -106.8314 81° East 538 619 35,000  Level Denver Center
Tue 04:12:29 PM 43.6531 -106.6331 81° East 544 626 35,000  Level Denver Center
Tue 04:13:31 PM 43.6778 -106.4056 81° East 536 617 35,000  Level Denver Center
Tue 04:14:33 PM 43.6981 -106.2078 82° East 541 623 35,000  Level Denver Center
Tue 04:15:35 PM 43.7175 -106.0111 82° East 539 620 35,000  Level Denver Center
Tue 04:16:36 PM 43.7400 -105.7828 82° East 537 618 35,000  Level Denver Center
Tue 04:17:38 PM 43.7581 -105.5878 83° East 536 617 35,000  Level Denver Center
Tue 04:18:40 PM 43.7814 -105.3594 82° East 536 617 35,000  Level Denver Center
Tue 04:19:42 PM 43.7986 -105.1633 83° East 535 616 35,000  Level Denver Center
Tue 04:20:44 PM 43.8194 -104.9342 83° East 535 616 35,000  Level Denver Center
Tue 04:21:46 PM 43.8367 -104.7386 83° East 535 616 35,000  Level Denver Center
Tue 04:22:47 PM 43.8539 -104.5433 83° East 534 615 35,000  Level Denver Center
Tue 04:23:49 PM 43.8733 -104.3131 83° East 536 617 35,000  Level Denver Center
Tue 04:24:51 PM 43.8900 -104.1183 83° East 534 615 35,000  Level Denver Center
Tue 04:25:53 PM 43.9100 -103.8894 83° East 535 616 35,000  Level Denver Center
Tue 04:26:55 PM 43.9253 -103.6914 84° East 536 617 35,000  Level Denver Center
Tue 04:27:57 PM 43.9422 -103.4606 84° East 538 619 35,000  Level Denver Center
Tue 04:28:59 PM 43.9594 -103.2681 83° East 530 610 35,000  Level Denver Center
Tue 04:30:01 PM 43.9744 -103.0394 85° East 530 610 35,000  Level Denver Center
Tue 04:31:02 PM 43.9747 -102.8450 90° East 528 608 35,000  Level Denver Center
Tue 04:32:04 PM 43.9675 -102.6217 92° East 527 606 35,000  Level Denver Center
Tue 04:33:06 PM 43.9589 -102.4153 93° East 533 613 35,000  Level Denver Center
Tue 04:34:08 PM 43.9492 -102.2069 94° East 539 620 35,000  Level Denver Center
Tue 04:35:10 PM 43.9397 -102.0006 94° East 539 620 35,000  Level Denver Center
Tue 04:36:12 PM 43.9333 -101.7958 92° East 536 617 35,000  Level Denver Center
Tue 04:37:13 PM 43.9300 -101.5956 91° East 530 610 35,000  Level Denver Center
Tue 04:38:15 PM 43.9231 -101.3903 93° East 533 613 35,000  Level Denver Center
Tue 04:39:17 PM 43.9122 -101.1428 93° East 538 619 35,000  Level Denver Center
Tue 04:40:19 PM 43.9039 -100.9400 93° East 532 612 35,000  Level Denver Center
Tue 04:41:21 PM 43.8953 -100.7336 93° East 538 619 35,000  Level Denver Center
Tue 04:42:22 PM 43.8867 -100.5303 93° East 533 613 35,000  Level Denver Center
Tue 04:43:24 PM 43.8767 -100.3250 94° East 535 616 35,000  Level Denver Center
Tue 04:44:50 PM 43.8628 -100.0372 94° East 538 619 35,000  Level Minneapolis Center
Tue 04:45:52 PM 43.8500 -99.7911 94° East 538 619 35,000  Level Minneapolis Center
Tue 04:46:54 PM 43.8383 -99.5906 95° East 533 613 35,000  Level Minneapolis Center
Tue 04:47:56 PM 43.8269 -99.3867 94° East 533 613 35,000  Level Minneapolis Center
Tue 04:48:58 PM 43.8161 -99.1828 94° East 533 613 35,000  Level Minneapolis Center
Tue 04:50:00 PM 43.8033 -98.9789 95° East 534 615 35,000  Level Minneapolis Center
Tue 04:55:59 PM 43.7148 -97.7320 95° East 530 610 35,000  Level FlightAware ADS-B
Tue 04:57:06 PM 43.6970 -97.5080 96° East 532 612 35,000  Level FlightAware ADS-B
Tue 04:57:30 PM 43.6899 -97.4255 97° East 532 612 35,000  Level FlightAware ADS-B
Tue 04:58:12 PM 43.6780 -97.2890 97° East 532 612 35,000  Level FlightAware ADS-B
Tue 04:58:52 PM 43.6670 -97.1480 96° East 532 612 35,000  Level FlightAware ADS-B
Tue 04:59:00 PM 43.6646 -97.1252 98° East 533 613 35,000  Level FlightAware ADS-B
Tue 05:00:02 PM 43.6460 -96.9150 97° East 531 611 35,000  Level FlightAware ADS-B
Tue 05:00:34 PM 43.6370 -96.8080 97° East 531 611 35,000  Level FlightAware ADS-B
Tue 05:01:09 PM 43.6260 -96.6890 97° East 531 611 35,000  Level FlightAware ADS-B
Tue 05:01:45 PM 43.6160 -96.5700 97° East 536 617 35,000  Level FlightAware ADS-B
Tue 05:02:21 PM 43.6040 -96.4470 98° East 543 625 35,000  Level FlightAware ADS-B
Tue 05:02:57 PM 43.5930 -96.3200 97° East 543 625 35,000  Level FlightAware ADS-B
Tue 05:03:29 PM 43.5830 -96.2150 97° East 543 625 35,000  Level FlightAware ADS-B
Tue 05:04:07 PM 43.5700 -96.0830 98° East 542 624 35,000  Level FlightAware ADS-B
Tue 05:04:28 PM 43.5632 -96.0077 97° East 543 625 35,000  Level FlightAware ADS-B
Tue 05:04:55 PM 43.5567 -95.9403 98° East 542 624 35,000  Level FlightAware ADS-B
Tue 05:05:32 PM 43.5421 -95.7902 98° East 542 624 35,000  Level FlightAware ADS-B (LPVM)
Tue 05:05:52 PM 43.5440 -95.8099 278° West 542 624 35,000  Level FlightAware ADS-B
Tue 05:06:04 PM 43.5313 -95.6806 98° East 542 624 35,000  Level FlightAware ADS-B (LPVM)
Tue 05:06:52 PM 43.5151 -95.5176 98° East 542 624 35,000  Level FlightAware ADS-B (LPVM)
Tue 05:07:02 PM 43.5263 -95.6298 278° West 542 624 35,000  Level FlightAware ADS-B
Tue 05:07:32 PM 43.5013 -95.3807 98° East 541 623 35,000  Level FlightAware ADS-B (LPVM)
Tue 05:08:13 PM 43.4870 -95.2440 98° East 542 624 35,000  Level FlightAware ADS-B
Tue 05:08:34 PM 43.4796 -95.1691 98° East 542 624 35,000  Level FlightAware ADS-B (LPVM)
Tue 05:09:12 PM 43.4662 -95.0403 98° East 543 625 35,000  Level FlightAware ADS-B (LPVM)
Tue 05:10:03 PM 43.4480 -94.8710 98° East 542 624 35,000  Level FlightAware ADS-B
Tue 05:10:38 PM 43.4351 -94.7475 98° East 543 625 35,000  Level FlightAware ADS-B (LPVM)
Tue 05:11:15 PM 43.4230 -94.6350 98° East 543 625 35,000  Level FlightAware ADS-B (LPVM)
Tue 05:11:50 PM 43.4093 -94.5086 98° East 543 625 35,000  Level FlightAware ADS-B (LPVM)
Tue 05:12:44 PM 43.3882 -94.3177 99° East 542 624 35,000  Level FlightAware ADS-B (LPVM)
Tue 05:13:43 PM 43.3657 -94.1171 99° East 541 623 35,000  Level FlightAware ADS-B (LPVM)
Tue 05:14:22 PM 43.3510 -93.9880 99° East 541 623 35,000  Level FlightAware ADS-B
Tue 05:14:59 PM 43.3370 -93.8640 99° East 541 623 35,000  Level FlightAware ADS-B
Tue 05:15:31 PM 43.3240 -93.7530 99° East 541 623 35,000  Level FlightAware ADS-B
Tue 05:16:09 PM 43.3090 -93.6260 99° East 540 621 35,000  Level FlightAware ADS-B
Tue 05:16:41 PM 43.2960 -93.5150 99° East 541 623 35,000  Level FlightAware ADS-B
Tue 05:17:17 PM 43.2820 -93.3960 99° East 540 621 35,000  Level FlightAware ADS-B
Tue 05:17:53 PM 43.2670 -93.2730 99° East 540 621 35,000  Level FlightAware ADS-B
Tue 05:18:27 PM 43.2530 -93.1570 99° East 540 621 35,000  Level FlightAware ADS-B
Tue 05:19:02 PM 43.2390 -93.0420 99° East 539 620 35,000  Level FlightAware ADS-B
Tue 05:19:38 PM 43.2240 -92.9210 100° East 539 620 35,000  Level FlightAware ADS-B
Tue 05:20:12 PM 43.2100 -92.8060 99° East 538 619 35,000  Level FlightAware ADS-B
Tue 05:20:48 PM 43.1950 -92.6860 100° East 538 619 35,000  Level FlightAware ADS-B
Tue 05:21:24 PM 43.1790 -92.5660 100° East 537 618 35,000  Level FlightAware ADS-B
Tue 05:21:44 PM 43.1707 -92.4976 99° East 538 619 35,000  Level FlightAware ADS-B (LPVM)
Tue 05:22:32 PM 43.1500 -92.3360 100° East 538 619 35,000  Level FlightAware ADS-B
Tue 05:23:08 PM 43.1340 -92.2170 100° East 538 619 35,000  Level FlightAware ADS-B
Tue 05:23:23 PM 43.1277 -92.1663 100° East 538 619 35,000  Level FlightAware ADS-B (LPVM)
Tue 05:24:23 PM 43.1027 -91.9759 100° East 539 620 35,000  Level FlightAware ADS-B (LPVM)
Tue 05:25:24 PM 43.0674 -91.7645 103° East 534 615 35,000  Level FlightAware ADS-B (LPVM)
Tue 05:26:04 PM 43.0202 -91.6624 122° Southeast 505 581 35,000  Level FlightAware ADS-B (LPVM)
Tue 05:27:00 PM 42.9390 -91.5170 127° Southeast 492 566 35,000  Level FlightAware ADS-B
Tue 05:27:34 PM 42.8940 -91.4340 126° Southeast 490 564 35,000  Level FlightAware ADS-B
Tue 05:27:51 PM 42.8704 -91.3877 125° Southeast 493 567 35,000  Level FlightAware ADS-B (LPVM)
Tue 05:28:38 PM 42.8350 -91.2550 110° East 510 587 35,000  Level FlightAware ADS-B
Tue 05:29:14 PM 42.8240 -91.1380 97° East 513 590 35,000  Level FlightAware ADS-B
Tue 05:29:24 PM 42.8206 -91.1008 97° East 514 592 35,000  Level FlightAware ADS-B (LPVM)
Tue 05:30:04 PM 42.8092 -90.9725 97° East 512 589 35,000  Level FlightAware ADS-B (LPVM)
Tue 05:30:44 PM 42.7989 -90.8586 97° East 511 588 35,000  Level FlightAware ADS-B (LPVM)
Tue 05:31:32 PM 42.7840 -90.6990 97° East 509 586 35,000  Level FlightAware ADS-B
Tue 05:32:05 PM 42.7750 -90.5970 97° East 509 586 35,000  Level FlightAware ADS-B
Tue 05:32:37 PM 42.7650 -90.4960 98° East 509 586 35,000  Level FlightAware ADS-B
Tue 05:33:18 PM 42.7530 -90.3660 97° East 508 585 35,000  Level FlightAware ADS-B
Tue 05:33:50 PM 42.7420 -90.2610 98° East 508 585 35,000  Level FlightAware ADS-B
Tue 05:34:26 PM 42.7310 -90.1460 97° East 509 586 35,000  Level FlightAware ADS-B
Tue 05:35:02 PM 42.7200 -90.0310 97° East 509 586 35,000  Level FlightAware ADS-B
Tue 05:35:38 PM 42.7090 -89.9240 98° East 510 587 35,000  Level FlightAware ADS-B
Tue 05:36:10 PM 42.6990 -89.8190 97° East 510 587 35,000  Level FlightAware ADS-B
Tue 05:36:44 PM 42.6880 -89.7090 98° East 510 587 35,000  Level FlightAware ADS-B
Tue 05:37:22 PM 42.6750 -89.5880 98° East 511 588 35,000  Level FlightAware ADS-B
Tue 05:37:58 PM 42.6640 -89.4770 98° East 511 588 35,000  Level FlightAware ADS-B
Tue 05:38:28 PM 42.6530 -89.3780 99° East 512 589 35,000  Level FlightAware ADS-B
Tue 05:39:06 PM 42.6410 -89.2570 98° East 512 589 35,000  Level FlightAware ADS-B
Tue 05:39:43 PM 42.6280 -89.1420 99° East 512 589 35,000  Level FlightAware ADS-B
Tue 05:40:18 PM 42.6170 -89.0330 98° East 512 589 35,000  Level FlightAware ADS-B
Tue 05:40:50 PM 42.6050 -88.9300 99° East 512 589 35,000  Level FlightAware ADS-B
Tue 05:41:28 PM 42.5920 -88.8110 98° East 512 589 35,000  Level FlightAware ADS-B
Tue 05:42:01 PM 42.5800 -88.7030 99° East 511 588 35,000  Level FlightAware ADS-B
Tue 05:42:37 PM 42.5680 -88.5930 98° East 511 588 35,000  Level FlightAware ADS-B
Tue 05:43:12 PM 42.5550 -88.4760 99° East 511 588 35,000  Level FlightAware ADS-B
Tue 05:43:43 PM 42.5440 -88.3830 99° East 511 588 35,000  Level FlightAware ADS-B
Tue 05:44:20 PM 42.5300 -88.2610 99° East 512 589 35,000  Level FlightAware ADS-B
Tue 05:44:54 PM 42.5180 -88.1540 99° East 512 589 35,000  Level FlightAware ADS-B
Tue 05:45:29 PM 42.5070 -88.0520 98° East 512 589 35,000  Level FlightAware ADS-B
Tue 05:46:06 PM 42.5000 -87.9260 94° East 512 589 35,000  Level FlightAware ADS-B
Tue 05:46:43 PM 42.4990 -87.8100 91° East 512 589 35,000  Level FlightAware ADS-B
Tue 05:47:24 PM 42.4990 -87.6760 90° East 512 589 35,000  Level FlightAware ADS-B
Tue 05:47:59 PM 42.4990 -87.5650 90° East 512 589 35,000  Level FlightAware ADS-B
Tue 05:48:35 PM 42.4990 -87.4550 90° East 511 588 35,000  Level FlightAware ADS-B
Tue 05:49:16 PM 42.4980 -87.3240 91° East 511 588 35,000  Level FlightAware ADS-B
Tue 05:49:47 PM 42.4980 -87.2250 90° East 511 588 35,000  Level FlightAware ADS-B
Tue 05:50:22 PM 42.4970 -87.1210 91° East 511 588 35,000  Level FlightAware ADS-B
Tue 05:50:58 PM 42.4960 -86.9910 91° East 511 588 35,000  Level FlightAware ADS-B
Tue 05:51:35 PM 42.4950 -86.8770 91° East 512 589 35,000  Level FlightAware ADS-B
Tue 05:52:12 PM 42.4940 -86.7570 91° East 512 589 35,000  Level FlightAware ADS-B
Tue 05:52:44 PM 42.4930 -86.6540 91° East 512 589 35,000  Level FlightAware ADS-B
Tue 05:53:17 PM 42.4910 -86.5490 91° East 513 590 35,000  Level FlightAware ADS-B
Tue 05:53:58 PM 42.4900 -86.4250 91° East 513 590 35,000  Level FlightAware ADS-B
Tue 05:54:31 PM 42.4880 -86.3110 91° East 513 590 35,000  Level FlightAware ADS-B
Tue 05:55:07 PM 42.4860 -86.1960 91° East 514 592 35,000  Level FlightAware ADS-B
Tue 05:55:40 PM 42.4850 -86.0880 91° East 516 594 35,000  Level FlightAware ADS-B
Tue 05:56:12 PM 42.4830 -85.9900 92° East 517 595 35,000  Level FlightAware ADS-B
Tue 05:56:49 PM 42.4810 -85.8720 91° East 518 596 35,000  Level FlightAware ADS-B
Tue 05:57:23 PM 42.4790 -85.7540 91° East 520 598 35,000  Level FlightAware ADS-B
Tue 05:58:01 PM 42.4760 -85.6320 92° East 521 600 35,000  Level FlightAware ADS-B
Tue 05:58:39 PM 42.4740 -85.5080 91° East 522 601 35,000  Level FlightAware ADS-B
Tue 05:59:10 PM 42.4710 -85.4080 92° East 522 601 35,000  Level FlightAware ADS-B
Tue 05:59:47 PM 42.4690 -85.2860 91° East 523 602 35,000  Level FlightAware ADS-B
Tue 06:00:23 PM 42.4660 -85.1670 92° East 523 602 35,000  Level FlightAware ADS-B
Tue 06:00:56 PM 42.4630 -85.0650 92° East 523 602 35,000  Level FlightAware ADS-B
Tue 06:01:34 PM 42.4600 -84.9350 92° East 523 602 35,000  Level FlightAware ADS-B
Tue 06:02:05 PM 42.4570 -84.8350 92° East 523 602 35,000  Level FlightAware ADS-B
Tue 06:02:40 PM 42.4540 -84.7280 92° East 524 603 35,000  Level FlightAware ADS-B
Tue 06:03:15 PM 42.4510 -84.6090 92° East 524 603 35,000  Level FlightAware ADS-B
Tue 06:03:54 PM 42.4470 -84.4790 92° East 524 603 35,000  Level FlightAware ADS-B
Tue 06:04:26 PM 42.4440 -84.3740 92° East 524 603 35,000  Level FlightAware ADS-B
Tue 06:05:05 PM 42.4400 -84.2470 92° East 524 603 35,000  Level FlightAware ADS-B
Tue 06:05:39 PM 42.4360 -84.1410 93° East 525 604 35,000  Level FlightAware ADS-B
Tue 06:06:14 PM 42.4320 -84.0270 93° East 525 604 35,000  Level FlightAware ADS-B
Tue 06:06:46 PM 42.4280 -83.9170 93° East 525 604 35,000  Level FlightAware ADS-B
Tue 06:07:24 PM 42.4240 -83.7920 92° East 525 604 35,000  Level FlightAware ADS-B
Tue 06:07:56 PM 42.4200 -83.6880 93° East 525 604 35,000  Level FlightAware ADS-B
Tue 06:08:34 PM 42.4150 -83.5610 93° East 525 604 35,000  Level FlightAware ADS-B
Tue 06:09:08 PM 42.4110 -83.4490 93° East 524 603 35,000  Level FlightAware ADS-B
Tue 06:09:44 PM 42.4060 -83.3330 93° East 524 603 35,000  Level FlightAware ADS-B
Tue 06:10:16 PM 42.4020 -83.2290 93° East 523 602 35,000  Level FlightAware ADS-B
Tue 06:10:52 PM 42.3970 -83.1120 93° East 522 601 35,000  Level FlightAware ADS-B
Tue 06:11:24 PM 42.3930 -83.0070 93° East 523 602 35,000  Level FlightAware ADS-B
Tue 06:12:04 PM 42.3870 -82.8850 94° East 522 601 35,000  Level FlightAware ADS-B
Tue 06:12:36 PM 42.3820 -82.7780 94° East 521 600 35,000 971 Level FlightAware ADS-B
Tue 06:13:12 PM 42.3770 -82.6550 93° East 514 592 36,100 1,667 Climbing FlightAware ADS-B
Tue 06:13:48 PM 42.3730 -82.5420 93° East 508 585 37,000 750 Climbing FlightAware ADS-B
Tue 06:14:24 PM 42.3680 -82.4330 94° East 503 579 37,000  Level FlightAware ADS-B
Tue 06:14:56 PM 42.3640 -82.3270 93° East 503 579 37,000  Level FlightAware ADS-B
Tue 06:15:28 PM 42.3600 -82.2280 93° East 505 581 37,000  Level FlightAware ADS-B
Tue 06:16:10 PM 42.3550 -82.0930 93° East 506 582 37,000  Level FlightAware ADS-B
Tue 06:16:40 PM 42.3510 -82.0130 94° East 508 585 37,000  Level FlightAware ADS-B
Tue 06:17:16 PM 42.3460 -81.8960 93° East 510 587 37,000  Level FlightAware ADS-B
Tue 06:17:50 PM 42.3410 -81.7890 94° East 512 589 37,000  Level FlightAware ADS-B
Tue 06:18:27 PM 42.3360 -81.6800 94° East 513 590 37,000  Level FlightAware ADS-B
Tue 06:19:00 PM 42.3300 -81.5550 94° East 513 590 37,000  Level FlightAware ADS-B
Tue 06:19:37 PM 42.3250 -81.4400 93° East 513 590 37,000  Level FlightAware ADS-B
Tue 06:20:15 PM 42.3190 -81.3150 94° East 513 590 37,000  Level FlightAware ADS-B
Tue 06:20:48 PM 42.3130 -81.2100 94° East 512 589 37,000  Level FlightAware ADS-B
Tue 06:21:23 PM 42.3080 -81.1000 93° East 512 589 37,000  Level FlightAware ADS-B
Tue 06:22:00 PM 42.3020 -80.9810 94° East 511 588 37,000  Level FlightAware ADS-B
Tue 06:22:32 PM 42.2960 -80.8800 95° East 511 588 37,000  Level FlightAware ADS-B
Tue 06:23:07 PM 42.2900 -80.7700 94° East 510 587 37,000  Level FlightAware ADS-B
Tue 06:23:43 PM 42.2840 -80.6540 94° East 509 586 37,000  Level FlightAware ADS-B
Tue 06:24:18 PM 42.2780 -80.5450 94° East 508 585 37,000  Level FlightAware ADS-B
Tue 06:24:51 PM 42.2720 -80.4400 94° East 507 583 37,000  Level FlightAware ADS-B
Tue 06:25:28 PM 42.2650 -80.3250 95° East 506 582 37,000  Level FlightAware ADS-B
Tue 06:26:03 PM 42.2590 -80.2150 94° East 505 581 37,000  Level FlightAware ADS-B
Tue 06:26:40 PM 42.2520 -80.0980 95° East 505 581 37,000  Level FlightAware ADS-B
Tue 06:27:11 PM 42.2460 -79.9990 95° East 506 582 37,000  Level FlightAware ADS-B
Tue 06:27:40 PM 42.2400 -79.9090 95° East 506 582 37,000  Level FlightAware ADS-B
Tue 06:28:17 PM 42.2330 -79.7940 95° East 506 582 37,000  Level FlightAware ADS-B
Tue 06:28:52 PM 42.2260 -79.6840 95° East 507 583 37,000  Level FlightAware ADS-B
Tue 06:29:28 PM 42.2190 -79.5690 95° East 507 583 37,000  Level FlightAware ADS-B
Tue 06:30:01 PM 42.2120 -79.4680 95° East 507 583 37,000  Level FlightAware ADS-B
Tue 06:30:37 PM 42.2040 -79.3520 95° East 507 583 37,000  Level FlightAware ADS-B
Tue 06:31:14 PM 42.1970 -79.2390 95° East 507 583 37,000  Level FlightAware ADS-B
Tue 06:31:46 PM 42.1880 -79.1390 97° East 508 585 37,000  Level FlightAware ADS-B
Tue 06:32:15 PM 42.1700 -79.0480 105° East 509 586 37,000  Level FlightAware ADS-B
Tue 06:32:58 PM 42.1390 -78.9190 108° East 508 585 37,000  Level FlightAware ADS-B
Tue 06:33:33 PM 42.1130 -78.8150 109° East 508 585 37,000  Level FlightAware ADS-B
Tue 06:34:03 PM 42.0890 -78.7240 110° East 508 585 37,000  Level FlightAware ADS-B
Tue 06:34:41 PM 42.0610 -78.6120 109° East 508 585 37,000  Level FlightAware ADS-B
Tue 06:35:17 PM 42.0340 -78.5050 109° East 508 585 37,000  Level FlightAware ADS-B
Tue 06:35:54 PM 42.0060 -78.3960 109° East 508 585 37,000  Level FlightAware ADS-B
Tue 06:36:29 PM 41.9790 -78.2910 109° East 508 585 37,000  Level FlightAware ADS-B
Tue 06:37:02 PM 41.9530 -78.1910 109° East 508 585 37,000  Level FlightAware ADS-B
Tue 06:37:39 PM 41.9250 -78.0810 109° East 509 586 37,000  Level FlightAware ADS-B
Tue 06:38:12 PM 41.8990 -77.9810 109° East 508 585 37,000  Level FlightAware ADS-B
Tue 06:38:48 PM 41.8710 -77.8740 109° East 507 583 37,000  Level FlightAware ADS-B
Tue 06:39:24 PM 41.8440 -77.7720 110° East 506 582 37,000  Level FlightAware ADS-B
Tue 06:39:56 PM 41.8180 -77.6760 110° East 506 582 37,000  Level FlightAware ADS-B
Tue 06:40:32 PM 41.7890 -77.5660 109° East 506 582 37,000  Level FlightAware ADS-B
Tue 06:41:08 PM 41.7620 -77.4610 109° East 507 583 37,000  Level FlightAware ADS-B
Tue 06:41:41 PM 41.7360 -77.3650 110° East 506 582 37,000  Level FlightAware ADS-B
Tue 06:42:17 PM 41.7090 -77.2630 109° East 506 582 37,000  Level FlightAware ADS-B
Tue 06:42:53 PM 41.6800 -77.1560 110° East 505 581 37,000  Level FlightAware ADS-B
Tue 06:43:29 PM 41.6510 -77.0470 110° East 504 580 37,000  Level FlightAware ADS-B
Tue 06:43:59 PM 41.6270 -76.9600 110° East 505 581 37,000  Level FlightAware ADS-B
Tue 06:44:35 PM 41.6020 -76.8700 110° East 504 580 37,000  Level FlightAware ADS-B
Tue 06:45:10 PM 41.5730 -76.7630 110° East 504 580 37,000  Level FlightAware ADS-B
Tue 06:45:45 PM 41.5440 -76.6560 110° East 504 580 37,000  Level FlightAware ADS-B
Tue 06:46:21 PM 41.5140 -76.5470 110° East 504 580 37,000  Level FlightAware ADS-B
Tue 06:46:56 PM 41.4850 -76.4420 110° East 513 590 37,000  Level FlightAware ADS-B
Tue 06:47:28 PM 41.4590 -76.3500 111° Southeast 519 597 37,000 -600 Level FlightAware ADS-B
Tue 06:48:06 PM 41.4260 -76.2310 110° East 520 598 36,300 -2,080 Descending FlightAware ADS-B
Tue 06:48:43 PM 41.3950 -76.1220 111° Southeast 528 608 34,400 -3,000 Descending FlightAware ADS-B
Tue 06:49:16 PM 41.3680 -76.0230 110° East 524 603 32,800 -2,833 Descending FlightAware ADS-B
Tue 06:49:55 PM 41.3340 -75.9060 111° Southeast 519 597 31,000 -2,535 Descending FlightAware ADS-B
Tue 06:50:27 PM 41.3080 -75.8140 111° Southeast 508 585 29,800 -2,261 Descending FlightAware ADS-B
Tue 06:51:04 PM 41.2780 -75.7080 111° Southeast 496 571 28,400 -2,366 Descending FlightAware ADS-B
Tue 06:51:38 PM 41.2460 -75.6080 113° Southeast 487 560 27,000 -2,366 Descending FlightAware ADS-B
Tue 06:52:15 PM 41.2120 -75.5080 114° Southeast 476 548 25,600 -2,294 Descending FlightAware ADS-B
Tue 06:52:46 PM 41.1850 -75.4270 114° Southeast 468 539 24,400 -2,118 Descending FlightAware ADS-B
Tue 06:53:23 PM 41.1530 -75.3310 114° Southeast 460 529 23,200 -1,135 Descending FlightAware ADS-B
Tue 06:54:00 PM 41.1220 -75.2390 114° Southeast 451 519 23,000 -486 Descending FlightAware ADS-B
Tue 06:54:37 PM 41.0910 -75.1490 115° Southeast 439 505 22,600 -649 Descending FlightAware ADS-B
Tue 06:55:14 PM 41.0610 -75.0590 114° Southeast 405 466 22,200 -640 Descending FlightAware ADS-B
Tue 06:55:52 PM 41.0330 -74.9780 115° Southeast 381 438 21,800 -930 Descending FlightAware ADS-B
Tue 06:56:25 PM 41.0090 -74.9080 114° Southeast 370 426 21,100 -800 Descending FlightAware ADS-B
Tue 06:56:52 PM 40.9980 -74.8490 104° East 362 417 21,000 -125 Descending FlightAware ADS-B
Tue 06:57:13 PM 41.0030 -74.8040 82° East 353 406 21,000  Level FlightAware ADS-B
Tue 06:57:50 PM 41.0200 -74.7300 73° East 351 404 21,000  Level FlightAware ADS-B
Tue 06:58:22 PM 41.0360 -74.6620 73° East 351 404 21,000  Level FlightAware ADS-B
Tue 06:58:58 PM 41.0530 -74.5920 72° East 353 406 21,000  Level FlightAware ADS-B
Tue 06:59:35 PM 41.0710 -74.5160 73° East 353 406 21,000 -387 Level FlightAware ADS-B
Tue 07:00:00 PM 41.0800 -74.4620 78° East 364 419 20,600 -933 Descending FlightAware ADS-B
Tue 07:00:20 PM 41.0750 -74.4200 99° East 369 425 20,300 -900 Descending FlightAware ADS-B
Tue 07:00:40 PM 41.0600 -74.3770 115° Southeast 370 426 20,000 -600 Descending FlightAware ADS-B
Tue 07:01:20 PM 41.0190 -74.3080 128° Southeast 369 425 19,700 -500 Descending FlightAware ADS-B
Tue 07:01:52 PM 40.9820 -74.2470 129° Southeast 368 423 19,400 -618 Descending FlightAware ADS-B
Tue 07:02:28 PM 40.9420 -74.1910 133° Southeast 361 415 19,000 -800 Descending FlightAware ADS-B
Tue 07:02:37 PM 40.9290 -74.1820 152° Southeast 359 413 18,800 -1,556 Descending FlightAware ADS-B
Tue 07:02:55 PM 40.8980 -74.1690 162° South 357 411 18,300 -1,560 Descending FlightAware ADS-B
Tue 07:03:27 PM 40.8468 -74.1519 166° South 361 415 17,500 -1,543 Descending FlightAware ADS-B
Tue 07:03:30 PM 40.8417 -74.1502 166° South 354 407 17,400 -1,650 Descending FlightAware ADS-B
Tue 07:04:07 PM 40.7830 -74.1312 166° South 354 407 16,400 -1,183 Descending FlightAware ADS-B
Tue 07:04:41 PM 40.7310 -74.1150 167° South 351 404 16,000 -500 Descending FlightAware ADS-B
Tue 07:04:55 PM 40.7074 -74.1074 166° South 353 406 16,000 -583 Level FlightAware ADS-B
Tue 07:05:53 PM 40.6165 -74.0788 167° South 350 403 15,300 -913 Descending FlightAware ADS-B
Tue 07:06:27 PM 40.5650 -74.0620 166° South 335 386 14,600 -1,143 Descending FlightAware ADS-B
Tue 07:06:56 PM 40.5230 -74.0440 162° South 330 380 14,100 -1,143 Descending FlightAware ADS-B
Tue 07:07:09 PM 40.5100 -74.0320 145° Southeast 330 380 13,800 -1,347 Descending FlightAware ADS-B
Tue 07:07:45 PM 40.4710 -73.9840 137° Southeast 331 381 13,000 -676 Descending FlightAware ADS-B
Tue 07:08:20 PM 40.4290 -73.9310 136° Southeast 329 379 13,000  Level FlightAware ADS-B
Tue 07:08:29 PM 40.4180 -73.9200 143° Southeast 328 377 13,000 -1,071 Level FlightAware ADS-B
Tue 07:08:48 PM 40.3920 -73.9070 159° South 323 372 12,500 -1,358 Descending FlightAware ADS-B
Tue 07:09:22 PM 40.3440 -73.8900 165° South 323 372 11,800 -1,059 Descending FlightAware ADS-B
Tue 07:09:56 PM 40.2960 -73.8730 165° South 314 361 11,300 -1,000 Descending FlightAware ADS-B
Tue 07:10:16 PM 40.2690 -73.8610 161° South 312 359 10,900 -1,071 Descending FlightAware ADS-B
Tue 07:10:24 PM 40.2580 -73.8520 148° Southeast 312 359 10,800 -1,333 Descending FlightAware ADS-B
Tue 07:10:34 PM 40.2490 -73.8370 128° Southeast 309 356 10,500 -1,429 Descending FlightAware ADS-B
Tue 07:10:45 PM 40.2430 -73.8220 118° Southeast 308 354 10,300 -1,385 Descending FlightAware ADS-B
Tue 07:11:00 PM 40.2380 -73.7920 102° East 306 352 9,900 -1,171 Descending FlightAware ADS-B
Tue 07:11:26 PM 40.2360 -73.7630 95° East 307 353 9,500 -1,200 Descending FlightAware ADS-B
Tue 07:11:50 PM 40.2540 -73.7040 68° East 292 336 8,900 -1,135 Descending FlightAware ADS-B
Tue 07:12:03 PM 40.2640 -73.6850 55° Northeast 284 327 8,800 -400 Descending FlightAware ADS-B
Tue 07:12:20 PM 40.2740 -73.6630 59° Northeast 277 319 8,700 -500 Descending FlightAware ADS-B
Tue 07:12:39 PM 40.2870 -73.6360 58° Northeast 267 307 8,500 -632 Descending FlightAware ADS-B
Tue 07:12:58 PM 40.2990 -73.6100 59° Northeast 257 296 8,300 -514 Descending FlightAware ADS-B
Tue 07:13:14 PM 40.3110 -73.5920 49° Northeast 244 281 8,200 -500 Descending FlightAware ADS-B
Tue 07:13:22 PM 40.3190 -73.5850 34° Northeast 238 274 8,100 -900 Descending FlightAware ADS-B
Tue 07:13:34 PM 40.3290 -73.5770 31° Northeast 235 270 7,900 -800 Descending FlightAware ADS-B
Tue 07:13:52 PM 40.3470 -73.5630 31° Northeast 232 267 7,700 -789 Descending FlightAware ADS-B
Tue 07:14:12 PM 40.3640 -73.5490 32° Northeast 229 264 7,400 -1,067 Descending FlightAware ADS-B
Tue 07:14:37 PM 40.3880 -73.5300 31° Northeast 225 259 6,900 -1,200 Descending FlightAware ADS-B
Tue 07:14:52 PM 40.3980 -73.5220 31° Northeast 223 257 6,600 -1,412 Descending FlightAware ADS-B
Tue 07:15:11 PM 40.4160 -73.5080 31° Northeast 222 255 6,100 -1,714 Descending FlightAware ADS-B
Tue 07:15:27 PM 40.4320 -73.4960 30° Northeast 224 258 5,600 -1,622 Descending FlightAware ADS-B
Tue 07:15:48 PM 40.4510 -73.4820 29° Northeast 226 260 5,100 -1,273 Descending FlightAware ADS-B
Tue 07:16:00 PM 40.4620 -73.4740 29° Northeast 226 260 4,900 -1,000 Descending FlightAware ADS-B
Tue 07:16:24 PM 40.4840 -73.4570 30° Northeast 225 259 4,500 -955 Descending FlightAware ADS-B
Tue 07:16:44 PM 40.5020 -73.4440 29° Northeast 224 258 4,200 -938 Descending FlightAware ADS-B
Tue 07:16:56 PM 40.5120 -73.4360 31° Northeast 224 258 4,000 -333 Descending FlightAware ADS-B
Tue 07:17:20 PM 40.5340 -73.4190 30° Northeast 224 258 4,000  Level FlightAware ADS-B
Tue 07:17:40 PM 40.5520 -73.4060 29° Northeast 222 255 4,000  Level FlightAware ADS-B
Tue 07:17:52 PM 40.5640 -73.3970 30° Northeast 221 254 4,000  Level FlightAware ADS-B
Tue 07:18:10 PM 40.5800 -73.3850 30° Northeast 223 257 4,000  Level FlightAware ADS-B
Tue 07:18:28 PM 40.5950 -73.3740 29° Northeast 224 258 4,000  Level FlightAware ADS-B
Tue 07:18:48 PM 40.6140 -73.3600 29° Northeast 222 255 4,000  Level FlightAware ADS-B
Tue 07:19:09 PM 40.6330 -73.3460 29° Northeast 224 258 4,000  Level FlightAware ADS-B
Tue 07:19:30 PM 40.6510 -73.3330 29° Northeast 224 258 4,000  Level FlightAware ADS-B
Tue 07:19:50 PM 40.6700 -73.3180 31° Northeast 224 258 4,000  Level FlightAware ADS-B
Tue 07:20:06 PM 40.6840 -73.3080 28° Northeast 222 255 4,000  Level FlightAware ADS-B
Tue 07:20:10 PM 40.6880 -73.3060 21° North 218 251 4,000  Level FlightAware ADS-B
Tue 07:20:19 PM 40.6970 -73.3050 North 215 247 4,000  Level FlightAware ADS-B
Tue 07:20:40 PM 40.7150 -73.3170 333° Northwest 212 244 4,000  Level FlightAware ADS-B
Tue 07:21:03 PM 40.7320 -73.3380 317° Northwest 210 242 4,000  Level FlightAware ADS-B
Tue 07:21:24 PM 40.7450 -73.3560 314° West 208 239 4,000  Level FlightAware ADS-B
Tue 07:21:44 PM 40.7570 -73.3770 307° West 209 241 4,000  Level FlightAware ADS-B
Tue 07:21:56 PM 40.7630 -73.3900 301° West 209 241 4,000 -667 Level FlightAware ADS-B
Tue 07:22:20 PM 40.7740 -73.4180 297° West 212 244 3,600 -955 Descending FlightAware ADS-B
Tue 07:22:40 PM 40.7820 -73.4400 296° West 211 243 3,300 -750 Descending FlightAware ADS-B
Tue 07:23:00 PM 40.7900 -73.4630 295° West 210 242 3,100 -878 Descending FlightAware ADS-B
Tue 07:23:21 PM 40.7990 -73.4880 295° West 207 238 2,700 -955 Descending FlightAware ADS-B
Tue 07:23:44 PM 40.8090 -73.5130 298° West 205 236 2,400 -977 Descending FlightAware ADS-B
Tue 07:24:04 PM 40.8180 -73.5360 297° West 195 224 2,000 -600 Descending FlightAware ADS-B
Tue 07:24:24 PM 40.8250 -73.5560 295° West 174 200 2,000  Level FlightAware ADS-B
Tue 07:24:41 PM 40.8300 -73.5720 292° West 163 188 2,000  Level FlightAware ADS-B
Tue 07:25:06 PM 40.8140 -73.5270 115° Southeast 195 224 2,000  Level FlightAware ADS-B
Tue 07:25:21 PM 40.8140 -73.6070 270° West 170 196 2,000  Level FlightAware ADS-B
Tue 07:25:42 PM 40.8040 -73.6240 232° Southwest 170 196 2,000  Level FlightAware ADS-B
Tue 07:26:02 PM 40.7940 -73.6360 222° Southwest 171 197 2,000  Level FlightAware ADS-B
Tue 07:26:30 PM 40.7740 -73.6550 216° Southwest 172 198 2,000  Level FlightAware ADS-B
Tue 07:26:51 PM 40.7600 -73.6660 211° Southwest 174 200 2,000  Level FlightAware ADS-B
Tue 07:27:11 PM 40.7450 -73.6760 207° Southwest 171 197 2,000  Level FlightAware ADS-B
Tue 07:27:27 PM 40.7350 -73.6850 214° Southwest 171 197 2,000 -353 Level FlightAware ADS-B
Tue 07:27:45 PM 40.7230 -73.6940 210° Southwest 172 198 1,800 -878 Descending FlightAware ADS-B
Tue 07:28:08 PM 40.7080 -73.7060 211° Southwest 159 183 1,400 -977 Descending FlightAware ADS-B
Tue 07:28:28 PM 40.6950 -73.7150 208° Southwest 139 160 1,100 -667 Descending FlightAware ADS-B
Tue 07:28:53 PM 40.6820 -73.7260 213° Southwest 133 153 900 -667 Descending FlightAware ADS-B
Tue 07:29:13 PM 40.6710 -73.7340 209° Southwest 133 153 600 -750 Descending FlightAware ADS-B
Tue 07:29:33 PM 40.6610 -73.7420 211° Southwest 134 154 400 -615 Descending FlightAware ADS-B
Tue 07:29:52 PM 40.6510 -73.7510 214° Southwest 136 157 200 -632 Descending FlightAware ADS-B
Tue 07:30:16 PM 40.6380 -73.7600 208° Southwest 125 144 -500 Descending FlightAware ADS-B

Login

Don't have an account? Register now (free) for customized features, flight alerts, and more!